Neptune Beach, FL

14:40 EDT le 01 septembre 2014 (GMT -0400)
Leeward Landing @ Neptune Beach | Change Station
CLOSE
Current Station
Stations météorologiques personnelles
Location: Neptune Beach, FL
Altitude: 14 ft
Stations météo à proximité

Alt. 14 ft 30.32 °N, 81.41 °W | Updated 6 seconds ago

Clear
Ciel dégagé
90.4 ° F
Paraît 106 ° F
N
0.0
Vent Variable Vent de Est
Gusts 2.0 mph

Aujourd'hui
Haut(e) -- | Bas -- ° F
--% Risque de précip.
Hier
Haut(e) -- | Bas -- ° F
Precip. -- pouce
7:02 AM 7:48 PM
Lune montante, 43% visible
Pression 30.11 pouce
Visibilité 10.0 Miles terrestres
Nuages Ciel dégagé
indice de chaleur 106 ° F
Point de rosée 79 ° F
Humidité 69%
Précipitations 0.00 pouce
Profondeur de la couche neigeuse Non disponible.
UV 13 sur 12
Pollen 8.50 sur 12
Ozone Bon
PM2.5 Moyen
Flu Activity Non disponible.
METAR KNRB 011752Z AUTO 11007KT 10SM CLR 32/25 A3011 RMK AO2 SLP194 T03220250 10322 20256 58007 $

More Conditions Fewer Conditions

Pression 30.11 pouce
Visibilité 10.0 Miles terrestres
Nuages Ciel dégagé
indice de chaleur 106 ° F
Point de rosée 79 ° F
Humidité 69%
Précipitations 0.00 pouce
Profondeur de la couche neigeuse Non disponible.
UV 13 sur 12
Pollen 8.50 sur 12
Ozone Bon
PM2.5 Moyen
Flu Activity Non disponible.
METAR KNRB 011752Z AUTO 11007KT 10SM CLR 32/25 A3011 RMK AO2 SLP194 T03220250 10322 20256 58007 $

More Conditions Fewer Conditions

10-Day Weather Forecast

Almanac

Astronomie

Sep. 01, 2014 Lever Coucher
Temps réel 07:02 EDT 19:48 EDT
Crépuscule civil 06:37 EDT 20:12 EDT
Crépuscule nautique 06:09 EDT 20:41 EDT
Crépuscule astronomique 05:39 EDT 21:10 EDT
Lune 13:18 EDT Pas de coucher de lune
Durée de lumière visible 13h 34m
Longueur du jour
12h 45m
Tomorrow will be 1m 46s shorter.
Lune montante, 43% of the Moon is Illuminated
Aujourd'hui
Lune montante
Sep 2
Premier quartier
Sep 8
Pleine lune
Sep 15
Dernier quartier
Sep 24
Nouveau

Extrêmes aujourd'hui

State Highs State Lows

Community

WunderPhotos

Upload Photos

1,749,359 Photos téléchargées !

Nearby

Qualité de l'air

  Qualité de l'air Indice de la qualité de l'air Polluant
Hier Bon
OZONE
Hier Bon
PM2.5
Actuel Moyen
PM2.5
Actuel Bon
OZONE
lundi Bon
OZONE
lundi Bon
PM2.5
mardi Bon
OZONE
mardi Bon
PM2.5
mercredi Bon
OZONE
mercredi Bon
PM2.5

Épaisseur de neige

Station Depth Altitude
Pas de nouvelles chutes de neige

Activité sismique

Ville Distance Mag. Time & Date
No recent earthquake activity has been reported nearby.
Minimum magnitude displayed is 2.5.

Températures des eaux côtières

Lieu Température
Mayport (Bar Pilots Dock), FL 84.0 ° F
Fernandina Beach, FL 84.9 ° F

Stations météo à proximité